Ellenboro, WV

9:42 AM EDT on August 01, 2014 (GMT -0400)
APRSWXNET Harrisville WV US (MAU728) Elev 806 ft | 39.23 °N, 81.04 °W | Change Station

Current weather conditions updated 54 minutes ago

Patches of Fog
Patches Fog Mist
63 °F
Feels Like 63 °F
N
0
Wind Variable Wind from North
Gusts 0.0 mph

Today is forecast to be nearly the same temperature as yesterday. Thunderstorms developing in the afternoon.

Today
High -- | Low -- °F
--% Chance of Precip.
Yesterday
High -- | Low -- °F
Precip. -- in
6:24 AM 8:36 PM
Waxing Crescent, 26% visible
Pressure 30.18 in
Visibility 5.0 miles
Clouds Scattered Clouds 10000 ft
Dew Point 63 °F
Humidity 100%
Rainfall 0.00 in
Snow Depth Not available.
UV 3 out of 12
Pollen 5.50 out of 12
Air Quality Not available.
Flu Activity Not available.
SPECI KPKB 011310Z 00000KT 5SM BCFG BR SCT100 17/17 A3018 RMK AO2 VIS N-NE 1 1/2 T01720172

More Conditions Fewer Conditions

Pressure 30.18 in
Visibility 5.0 miles
Clouds Scattered Clouds 10000 ft
Dew Point 63 °F
Humidity 100%
Rainfall 0.00 in
Snow Depth Not available.
UV 3 out of 12
Pollen 5.50 out of 12
Air Quality Not available.
Flu Activity Not available.
SPECI KPKB 011310Z 00000KT 5SM BCFG BR SCT100 17/17 A3018 RMK AO2 VIS N-NE 1 1/2 T01720172

More Conditions Fewer Conditions

10-Day Weather Forecast

Almanac

Astronomy

Aug. 01, 2014 Rise Set
Actual Time 6:24 AM EDT 8:36 PM EDT
Civil Twilight 5:54 AM EDT 9:06 PM EDT
Nautical Twilight 5:17 AM EDT 9:42 PM EDT
Astronomical Twilight 4:37 AM EDT 10:22 PM EDT
Moon 11:44 AM EDT 11:22 PM EDT
Length of Visible Light 15h 11m
Length of Day
14h 11m
Tomorrow will be 1m 57s shorter.
Waxing Crescent, 26% of the Moon is Illuminated
Today
Waxing Crescent
Aug 3
First Quarter
Aug 10
Full
Aug 17
Last Quarter
Aug 25
New

Today's Extremes

State Highs State Lows

Community

WunderPhotos

Upload Photos

1,739,557 photos uploaded!

Nearby

Snow Depth

Station Depth Elevation
No new snow has been reported.

Earthquake Activity

City Distance Mag. Time & Date
No recent earthquake activity has been reported nearby.
Minimum magnitude displayed is 2.5.

Coastal Water Temperatures

Place Temperature
No Stations Reporting

Nearby Weather Stations

Station Location Temp. Heat Index Dew Point Humidity Wind Precip. Elev Updated Type
APRSWXNET Harrisville WV US, Hazelgreen, WV 63 °F - 63 °F 100% North  at  0 mph 0.00 in / hr 806 ft 8:48 AM EDT MADIS
W8PY @ Harmony, West Union, WV 65.7 °F - 65 °F 96% ESE  at  0.0 mph 0.00 in / hr 852 ft 9:39 AM EDT Normal
Pleasants Energy, St. Marys, WV 66.7 °F - 66 °F 98% East  at  1.0 mph 0.00 in / hr 640 ft 9:41 AM EDT Normal
Kidwell, WV, Sistersville, WV 72.3 °F 73 °F 66 °F 80% South  at  0.0 mph - / hr 738 ft 9:40 AM EDT Normal

Show More Stations Show Fewer Stations